Time;durP1;ratioP1;P1;durP2;ratioP2;P2;SDS_P1;SDS_P2;PMS_P1;PMS_P2;Temp;Humidity;BMP_temperature;BMP_pressure;BME280_temperature;BME280_humidity;BME280_pressure;Samples;Min_cycle;Max_cycle;Signal;HPM_P1;HPM_P2
2022/12/06 00:01:28;;;;;;;31.65;19.65;;;;;;;6.79;73.53;100344.13;4860240;28;97239;-80
2022/12/06 00:03:56;;;;;;;32.30;21.20;;;;;;;6.77;73.10;100336.31;4852789;28;101506;-79
2022/12/06 00:06:24;;;;;;;33.35;20.33;;;;;;;6.82;73.24;100343.19;4844484;28;101674;-79
2022/12/06 00:08:50;;;;;;;31.23;20.67;;;;;;;6.82;73.14;100343.19;4854084;28;97215;-81
2022/12/06 00:11:21;;;;;;;29.88;19.40;;;;;;;6.79;72.86;100339.75;4836018;28;99469;-80
2022/12/06 00:13:50;;;;;;;33.20;19.27;;;;;;;6.78;73.04;100345.00;4833617;28;101342;-79
2022/12/06 00:16:16;;;;;;;29.25;19.13;;;;;;;6.75;73.02;100332.88;4844853;28;101957;-80
2022/12/06 00:18:42;;;;;;;29.13;18.30;;;;;;;6.84;72.83;100357.09;4873214;28;97335;-79
2022/12/06 00:21:13;;;;;;;32.40;19.60;;;;;;;6.71;73.29;100354.69;4839692;28;97386;-79
2022/12/06 00:23:41;;;;;;;28.42;18.35;;;;;;;6.78;73.36;100368.50;4850363;28;101369;-80
2022/12/06 00:26:07;;;;;;;31.70;19.58;;;;;;;6.79;73.51;100375.44;4837668;28;101249;-80
2022/12/06 00:28:34;;;;;;;29.27;18.55;;;;;;;6.80;73.63;100387.56;4845349;28;97380;-79
2022/12/06 00:31:01;;;;;;;28.05;18.77;;;;;;;6.75;73.38;100372.00;4856597;28;96873;-79
2022/12/06 00:33:27;;;;;;;29.17;17.80;;;;;;;6.74;73.57;100375.50;4856904;28;101620;-79
2022/12/06 00:36:00;;;;;;;25.80;18.17;;;;;;;6.87;73.29;100383.13;4856879;28;101623;-81
2022/12/06 00:38:27;;;;;;;28.45;18.80;;;;;;;6.87;73.36;100377.91;4846689;28;97167;-79
2022/12/06 00:41:07;;;;;;;26.75;18.17;;;;;;;6.85;73.30;100369.25;4834684;28;97197;-79
2022/12/06 00:43:34;;;;;;;30.42;17.95;;;;;;;6.85;73.38;100377.91;4845522;28;97451;-79
2022/12/06 00:46:00;;;;;;;25.80;17.50;;;;;;;6.77;73.33;100356.31;4829527;28;101659;-80
2022/12/06 00:48:26;;;;;;;24.58;17.58;;;;;;;6.89;73.36;100365.66;4856267;28;97103;-79
2022/12/06 00:50:51;;;;;;;26.77;17.23;;;;;;;6.90;73.15;100373.47;4844487;28;97254;-80
2022/12/06 00:53:17;;;;;;;26.52;18.52;;;;;;;6.93;72.79;100363.00;4871784;28;98487;-80
2022/12/06 00:55:43;;;;;;;28.58;17.48;;;;;;;6.87;72.42;100357.03;4849192;28;101552;-80
2022/12/06 00:58:09;;;;;;;25.27;17.40;;;;;;;6.93;72.90;100368.22;4832620;28;97114;-80
2022/12/06 01:00:34;;;;;;;25.17;17.65;;;;;;;6.78;72.92;100330.22;4860543;28;97177;-80
2022/12/06 01:03:00;;;;;;;25.13;17.38;;;;;;;6.71;72.68;100320.75;4845558;28;101693;-79
2022/12/06 01:05:25;;;;;;;26.42;17.02;;;;;;;6.83;72.56;100326.66;4854098;28;97947;-79
2022/12/06 01:07:51;;;;;;;24.58;16.92;;;;;;;6.86;72.89;100334.41;4853587;28;97959;-81
2022/12/06 01:10:17;;;;;;;26.88;17.17;;;;;;;6.88;72.99;100317.00;4840974;28;96982;-79
2022/12/06 01:12:42;;;;;;;25.63;17.05;;;;;;;6.86;72.78;100305.72;4849142;28;101886;-79
2022/12/06 01:15:08;;;;;;;26.35;17.27;;;;;;;6.87;72.66;100313.53;4846353;28;98412;-80
2022/12/06 01:17:34;;;;;;;27.10;17.65;;;;;;;6.88;72.74;100304.78;4869834;28;96757;-79
2022/12/06 01:20:00;;;;;;;26.02;17.38;;;;;;;6.84;72.71;100300.53;4844968;28;97003;-80
2022/12/06 01:22:26;;;;;;;25.30;16.73;;;;;;;6.90;72.47;100310.00;4853577;28;101922;-79
2022/12/06 01:24:52;;;;;;;25.48;17.52;;;;;;;6.74;72.48;100272.88;4841064;28;101095;-82
2022/12/06 01:27:17;;;;;;;24.38;16.60;;;;;;;6.91;72.38;100288.22;4846959;28;97153;-81
2022/12/06 01:29:43;;;;;;;26.15;16.90;;;;;;;6.94;72.72;100288.16;4840687;28;97933;-78
2022/12/06 01:32:08;;;;;;;24.70;16.90;;;;;;;6.98;72.22;100287.19;4850425;28;101467;-80
2022/12/06 01:34:34;;;;;;;25.77;17.20;;;;;;;6.94;72.32;100273.34;4840263;28;101568;-80
2022/12/06 01:36:59;;;;;;;25.48;16.98;;;;;;;6.94;72.08;100267.28;4848374;28;96938;-80
2022/12/06 01:39:25;;;;;;;26.08;16.92;;;;;;;6.92;72.27;100254.28;4852743;28;96999;-80
2022/12/06 01:41:50;;;;;;;25.80;16.33;;;;;;;6.82;72.79;100244.91;4849644;28;101381;-79
2022/12/06 01:44:55;;;;;;;29.42;17.50;;;;;;;6.93;72.60;100247.31;4837247;28;101197;-80
2022/12/06 01:47:52;;;;;;;26.20;17.38;;;;;;;6.93;72.57;100260.34;4870365;28;96798;-79
2022/12/06 01:50:28;;;;;;;25.80;15.50;;;;;;;6.85;72.74;100244.00;4852322;28;98400;-80
2022/12/06 01:52:56;;;;;;;23.77;16.38;;;;;;;6.95;72.75;100259.44;4837864;28;101716;-81
2022/12/06 01:55:25;;;;;;;24.95;16.50;;;;;;;6.97;72.34;100264.63;4857181;28;101175;-79
2022/12/06 01:57:52;;;;;;;24.35;16.23;;;;;;;6.90;72.33;100266.50;4839707;28;96770;-79
2022/12/06 02:00:18;;;;;;;23.88;16.50;;;;;;;6.91;72.54;100267.34;4850150;28;97594;-80
2022/12/06 02:02:44;;;;;;;24.05;16.55;;;;;;;6.75;72.50;100241.56;4853844;28;97682;-79
2022/12/06 02:05:10;;;;;;;24.33;16.33;;;;;;;6.89;72.62;100246.50;4839732;28;101335;-80
2022/12/06 02:07:36;;;;;;;24.13;15.55;;;;;;;6.84;72.20;100235.31;4854573;28;97034;-79
2022/12/06 02:10:02;;;;;;;24.95;16.85;;;;;;;6.91;72.43;100262.97;4848026;28;97407;-79
2022/12/06 02:12:28;;;;;;;24.23;16.02;;;;;;;6.90;72.41;100255.19;4846319;28;101189;-79
2022/12/06 02:14:53;;;;;;;23.30;15.68;;;;;;;6.88;72.41;100252.59;4826986;28;101919;-79
2022/12/06 02:17:25;;;;;;;23.95;16.58;;;;;;;6.93;72.64;100266.44;4844712;28;97109;-80
2022/12/06 02:20:09;;;;;;;24.42;16.48;;;;;;;6.95;72.55;100254.22;4855581;28;97396;-80
2022/12/06 02:22:56;;;;;;;25.05;16.05;;;;;;;7.00;72.12;100249.75;4841829;28;101452;-79
2022/12/06 02:25:21;;;;;;;22.92;16.08;;;;;;;6.96;72.24;100247.25;4868123;28;98545;-80
2022/12/06 02:28:20;;;;;;;26.17;16.02;;;;;;;6.99;72.35;100240.22;4850585;28;96833;-79
2022/12/06 02:31:07;;;;;;;27.10;18.23;;;;;;;6.96;72.46;100234.19;4859025;28;97637;-80
2022/12/06 02:33:43;;;;;;;25.10;16.70;;;;;;;6.93;72.52;100229.91;4857792;28;101649;-80
2022/12/06 02:36:12;;;;;;;25.40;17.08;;;;;;;7.00;72.21;100236.69;4867937;28;97995;-80
2022/12/06 02:38:44;;;;;;;22.05;15.02;;;;;;;6.97;71.97;100218.50;4856823;28;96789;-80
2022/12/06 02:41:15;;;;;;;25.23;16.52;;;;;;;6.99;72.18;100224.53;4849174;28;97178;-80
2022/12/06 02:43:43;;;;;;;26.00;17.40;;;;;;;6.88;72.20;100205.63;4856088;28;101570;-79
2022/12/06 02:46:11;;;;;;;22.73;15.57;;;;;;;6.99;72.21;100216.72;4857043;28;101583;-80
2022/12/06 02:48:36;;;;;;;24.05;16.02;;;;;;;6.88;71.88;100196.97;4840018;28;97308;-80
2022/12/06 02:51:06;;;;;;;28.85;16.15;;;;;;;6.86;72.29;100189.16;4828395;28;97569;-79
2022/12/06 02:53:33;;;;;;;25.05;15.93;;;;;;;6.94;72.17;100204.66;4850818;28;101673;-79
2022/12/06 02:55:59;;;;;;;25.58;16.70;;;;;;;6.91;72.07;100205.56;4842600;28;101078;-80
2022/12/06 02:58:25;;;;;;;27.48;16.52;;;;;;;6.99;72.16;100221.09;4854712;28;97237;-79
2022/12/06 03:01:01;;;;;;;27.20;17.80;;;;;;;6.99;72.09;100221.94;4863143;28;97263;-79
2022/12/06 03:03:37;;;;;;;35.10;18.30;;;;;;;6.98;72.04;100227.16;4842452;28;101425;-80
2022/12/06 03:06:02;;;;;;;26.75;16.98;;;;;;;7.01;72.37;100230.59;4850137;28;101673;-80
2022/12/06 03:09:06;;;;;;;29.52;17.95;;;;;;;7.02;72.17;100229.69;4862387;28;97390;-79
2022/12/06 03:12:09;;;;;;;27.30;18.20;;;;;;;6.99;72.06;100224.53;4847741;28;97302;-79
2022/12/06 03:14:59;;;;;;;27.33;17.63;;;;;;;7.00;71.57;100221.03;4853543;28;101339;-80
2022/12/06 03:17:37;;;;;;;28.33;17.58;;;;;;;7.03;71.98;100220.97;4848335;28;101254;-80
2022/12/06 03:20:17;;;;;;;26.75;17.52;;;;;;;6.98;72.08;100216.72;4857657;28;98480;-79
2022/12/06 03:22:47;;;;;;;28.23;17.20;;;;;;;6.96;71.95;100214.16;4832829;28;97207;-79
2022/12/06 03:25:12;;;;;;;27.97;18.10;;;;;;;7.02;72.01;100206.22;4842265;28;101257;-79
2022/12/06 03:27:38;;;;;;;29.02;19.00;;;;;;;7.05;71.74;100210.50;4856774;28;101308;-80
2022/12/06 03:30:07;;;;;;;30.60;19.40;;;;;;;7.00;71.72;100200.16;4859764;28;96975;-80
2022/12/06 03:32:33;;;;;;;31.88;19.08;;;;;;;6.98;71.66;100201.97;4865905;28;97663;-79
2022/12/06 03:35:04;;;;;;;28.98;18.55;;;;;;;7.00;72.02;100202.75;4836076;28;101432;-80
2022/12/06 03:37:31;;;;;;;29.80;18.73;;;;;;;7.01;72.22;100208.84;4829139;28;101838;-79
2022/12/06 03:40:03;;;;;;;31.98;20.02;;;;;;;7.02;72.02;100213.19;4859140;28;96722;-81
2022/12/06 03:42:29;;;;;;;25.58;17.10;;;;;;;6.99;72.06;100203.66;4841932;28;97493;-79
2022/12/06 03:44:55;;;;;;;29.33;18.45;;;;;;;7.03;72.32;100199.22;4850585;28;101351;-80
2022/12/06 03:47:33;;;;;;;33.80;19.70;;;;;;;6.95;72.37;100182.88;4840370;28;101023;-79
2022/12/06 03:50:04;;;;;;;31.23;19.88;;;;;;;7.03;72.05;100189.66;4847403;28;97269;-80
2022/12/06 03:52:31;;;;;;;31.38;19.70;;;;;;;7.07;71.89;100198.28;4839554;28;97458;-80
2022/12/06 03:54:57;;;;;;;27.92;18.98;;;;;;;7.05;72.27;100205.28;4840214;28;101469;-81
2022/12/06 03:57:22;;;;;;;31.27;20.08;;;;;;;7.08;71.81;100202.63;4843049;28;101431;-80
2022/12/06 03:59:48;;;;;;;32.72;19.27;;;;;;;7.09;71.51;100203.47;4870760;28;97018;-80
2022/12/06 04:02:13;;;;;;;31.63;20.50;;;;;;;7.01;71.98;100198.41;4851026;28;98033;-80
2022/12/06 04:04:39;;;;;;;35.03;20.63;;;;;;;6.87;71.78;100169.16;4839929;28;101665;-79
2022/12/06 04:07:05;;;;;;;35.10;19.30;;;;;;;6.99;72.18;100192.38;4862001;28;101032;-79
2022/12/06 04:14:58;;;;;;;33.00;20.98;;;;;;;7.09;71.44;100193.88;4858602;28;101201;-80
2022/12/06 04:20:08;;;;;;;32.90;20.95;;;;;;;7.01;71.88;100196.69;4851869;28;97419;-80
2022/12/06 04:25:18;;;;;;;31.20;20.60;;;;;;;7.01;72.50;100191.44;4859068;28;101616;-80
2022/12/06 04:38:43;;;;;;;33.63;21.88;;;;;;;6.99;72.92;100174.97;4865214;28;98163;-80
2022/12/06 04:43:40;;;;;;;36.05;22.35;;;;;;;7.02;73.06;100177.50;4850861;28;97211;-80
2022/12/06 04:44:01;;;;;;;;;;;;;;;7.03;73.27;100186.19;4855476;28;97112;-81
2022/12/06 04:46:27;;;;;;;36.22;22.83;;;;;;;7.03;73.08;100179.22;4844782;28;101126;-80
2022/12/06 04:48:52;;;;;;;38.28;24.63;;;;;;;7.06;73.07;100161.78;4842125;28;101463;-80
2022/12/06 04:51:19;;;;;;;40.50;25.45;;;;;;;7.01;73.42;100160.13;4856677;28;97423;-80
2022/12/06 04:53:45;;;;;;;40.85;26.27;;;;;;;7.01;73.83;100167.97;4854315;28;97294;-80
2022/12/06 04:56:10;;;;;;;40.15;26.38;;;;;;;7.00;73.80;100167.97;4852477;28;101132;-80
2022/12/06 04:58:36;;;;;;;40.10;27.48;;;;;;;6.96;73.77;100159.38;4839337;28;102010;-80
2022/12/06 05:01:01;;;;;;;45.60;29.52;;;;;;;7.00;73.83;100162.75;4855729;28;97234;-80
2022/12/06 05:03:27;;;;;;;50.67;33.47;;;;;;;6.97;73.83;100157.59;4835631;28;96987;-80
2022/12/06 05:05:52;;;;;;;53.35;33.95;;;;;;;6.99;73.63;100151.47;4836297;28;101529;-79
2022/12/06 05:08:18;;;;;;;61.95;37.97;;;;;;;7.02;73.59;100155.75;4838472;28;101490;-80
2022/12/06 05:10:48;;;;;;;60.65;38.55;;;;;;;6.92;73.89;100152.50;4834019;28;97522;-80
2022/12/06 05:13:14;;;;;;;62.33;38.80;;;;;;;7.00;73.81;100154.94;4838392;28;96865;-79
2022/12/06 05:15:55;;;;;;;67.55;40.53;;;;;;;6.87;73.90;100140.44;4845468;28;97618;-79
2022/12/06 05:18:21;;;;;;;70.13;43.40;;;;;;;6.98;74.02;100159.31;4870853;28;101246;-80
2022/12/06 05:20:46;;;;;;;61.78;39.20;;;;;;;6.89;73.97;100144.72;4840755;28;97800;-80
2022/12/06 05:23:12;;;;;;;60.33;39.25;;;;;;;6.91;74.25;100155.13;4852692;28;97410;-80
2022/12/06 05:25:38;;;;;;;68.80;39.63;;;;;;;6.95;74.18;100148.94;4839899;28;101898;-80
2022/12/06 05:28:03;;;;;;;65.13;40.08;;;;;;;6.88;73.96;100129.97;4852916;28;101377;-80
2022/12/06 05:30:29;;;;;;;69.97;40.90;;;;;;;6.96;74.07;100148.06;4842980;28;97383;-81
2022/12/06 05:32:54;;;;;;;67.57;41.45;;;;;;;6.98;73.99;100151.50;4841027;28;97285;-79
2022/12/06 05:35:20;;;;;;;73.38;42.08;;;;;;;6.95;73.93;100136.78;4839267;28;100272;-80
2022/12/06 05:37:45;;;;;;;66.22;41.22;;;;;;;6.99;74.01;100148.84;4845051;28;101698;-80
2022/12/06 05:40:11;;;;;;;65.10;42.30;;;;;;;7.01;74.02;100147.09;4851051;28;97205;-79
2022/12/06 05:42:39;;;;;;;60.50;39.38;;;;;;;6.89;73.84;100136.03;4855647;28;97249;-79
2022/12/06 05:45:05;;;;;;;63.08;41.38;;;;;;;6.97;73.98;100149.78;4853834;28;98095;-80
2022/12/06 05:47:31;;;;;;;65.13;41.95;;;;;;;6.98;73.80;100141.94;4839033;28;100949;-80
2022/12/06 05:49:56;;;;;;;64.13;40.28;;;;;;;6.97;73.92;100148.03;4837069;28;97199;-79
2022/12/06 05:52:22;;;;;;;65.57;40.17;;;;;;;6.91;73.60;100136.88;4851139;28;97353;-80
2022/12/06 05:54:47;;;;;;;59.53;39.05;;;;;;;6.99;73.87;100150.63;4845227;28;100893;-81
2022/12/06 05:57:12;;;;;;;59.97;39.03;;;;;;;6.84;73.98;100127.47;4852422;28;97534;-81
2022/12/06 05:59:38;;;;;;;59.85;36.72;;;;;;;7.00;73.69;100153.19;4849307;28;97465;-81
2022/12/06 06:02:04;;;;;;;51.13;34.10;;;;;;;6.97;73.70;100149.78;4851711;28;97329;-79
2022/12/06 06:04:29;;;;;;;51.70;33.05;;;;;;;7.01;73.64;100152.31;4835587;28;100710;-79
2022/12/06 06:06:55;;;;;;;56.60;33.83;;;;;;;6.99;73.57;100142.78;4842457;28;101527;-80
2022/12/06 06:09:20;;;;;;;53.17;31.90;;;;;;;6.95;73.21;100144.59;4850597;28;98258;-80
2022/12/06 06:11:46;;;;;;;48.67;29.38;;;;;;;6.87;73.47;100132.63;4849672;28;96982;-80
2022/12/06 06:14:11;;;;;;;43.95;28.15;;;;;;;6.91;73.36;100136.88;4851045;28;101396;-81
2022/12/06 06:16:37;;;;;;;39.70;25.40;;;;;;;7.00;73.19;100149.72;4851356;28;100804;-81
2022/12/06 06:19:02;;;;;;;35.95;23.10;;;;;;;6.97;73.52;100160.22;4836490;28;97205;-82
2022/12/06 06:21:28;;;;;;;36.78;22.55;;;;;;;6.90;73.55;100154.28;4835121;28;98252;-83
2022/12/06 06:23:55;;;;;;;35.92;22.15;;;;;;;6.88;73.59;100149.97;4850718;28;101127;-80
2022/12/06 06:26:21;;;;;;;33.33;20.85;;;;;;;6.92;73.61;100156.84;4832821;28;101138;-81
2022/12/06 06:28:46;;;;;;;28.70;19.65;;;;;;;6.93;73.19;100163.81;4854430;28;96783;-83
2022/12/06 06:31:12;;;;;;;26.20;18.35;;;;;;;6.89;72.94;100155.16;4826764;28;97120;-81
2022/12/06 06:33:37;;;;;;;22.98;15.68;;;;;;;6.93;72.54;100159.44;4826721;28;101309;-81
2022/12/06 06:36:03;;;;;;;18.90;12.05;;;;;;;6.88;72.43;100161.28;4850210;28;98528;-82
2022/12/06 06:38:29;;;;;;;18.33;12.65;;;;;;;6.84;71.91;100167.47;4853224;28;96963;-81
2022/12/06 06:40:54;;;;;;;16.38;10.77;;;;;;;6.78;72.31;100151.94;4837490;28;96962;-81
2022/12/06 06:43:20;;;;;;;17.08;9.73;;;;;;;6.83;72.05;100167.47;4828846;28;101827;-81
2022/12/06 06:45:53;;;;;;;14.15;9.15;;;;;;;6.68;71.95;100143.44;4856667;28;97524;-83
2022/12/06 06:48:20;;;;;;;13.73;9.00;;;;;;;6.79;72.23;100164.94;4833839;28;97079;-82
2022/12/06 06:50:46;;;;;;;12.98;8.13;;;;;;;6.73;71.83;100159.00;4836413;28;98324;-81
2022/12/06 06:53:12;;;;;;;13.85;9.07;;;;;;;6.70;71.75;100153.84;4853900;28;101290;-81
2022/12/06 06:55:37;;;;;;;14.38;9.30;;;;;;;6.76;71.88;100161.53;4854496;28;101529;-83
2022/12/06 06:58:04;;;;;;;16.35;10.20;;;;;;;6.73;71.60;100146.81;4837901;28;97621;-82
2022/12/06 07:00:30;;;;;;;13.35;8.85;;;;;;;6.82;71.41;100164.03;4852037;28;96870;-83
2022/12/06 07:02:55;;;;;;;12.98;7.63;;;;;;;6.66;71.24;100141.75;4831440;28;101515;-80
2022/12/06 07:05:21;;;;;;;12.02;8.27;;;;;;;6.73;71.27;100145.97;4831192;28;101300;-81
2022/12/06 07:07:47;;;;;;;12.75;7.75;;;;;;;6.75;71.52;100159.84;4834372;28;96780;-80
2022/12/06 07:10:12;;;;;;;10.23;7.43;;;;;;;6.72;71.22;100147.72;4854045;28;97608;-80
2022/12/06 07:12:38;;;;;;;10.50;7.03;;;;;;;6.63;70.69;100127.00;4828625;28;102076;-80
2022/12/06 07:15:04;;;;;;;11.73;7.07;;;;;;;6.67;70.82;100146.94;4838833;28;101146;-82
2022/12/06 07:17:30;;;;;;;10.70;6.97;;;;;;;6.59;70.85;100135.81;4853307;28;97139;-79
2022/12/06 07:19:55;;;;;;;11.05;6.50;;;;;;;6.66;70.42;100153.06;4837900;28;97366;-80
2022/12/06 07:22:21;;;;;;;10.13;6.15;;;;;;;6.56;70.82;100136.72;4848793;28;98178;-80
2022/12/06 07:24:46;;;;;;;10.48;6.70;;;;;;;6.63;70.19;100140.06;4847223;28;101694;-80
2022/12/06 07:27:12;;;;;;;9.57;5.80;;;;;;;6.62;70.38;100142.72;4830629;28;97270;-80
2022/12/06 07:29:37;;;;;;;8.98;5.80;;;;;;;6.64;70.45;100148.75;4847761;28;97140;-77
2022/12/06 07:32:03;;;;;;;8.95;5.88;;;;;;;6.65;70.40;100153.94;4850148;28;101150;-83
2022/12/06 07:34:29;;;;;;;8.55;5.40;;;;;;;6.66;69.76;100155.66;4850886;28;100927;-80
2022/12/06 07:36:54;;;;;;;7.65;5.63;;;;;;;6.40;70.46;100114.47;4859687;28;97273;-80
2022/12/06 07:39:20;;;;;;;11.02;6.75;;;;;;;6.56;70.19;100143.69;4866903;28;98506;-78
2022/12/06 07:45:03;;;;;;;12.23;6.73;;;;;;;6.57;70.24;100146.28;4857372;28;101780;-79
2022/12/06 07:47:40;;;;;;;10.77;7.20;;;;;;;6.47;70.30;100136.91;4861090;28;97291;-79
2022/12/06 07:50:12;;;;;;;12.15;7.55;;;;;;;6.44;70.68;100129.16;4857142;28;98065;-80
2022/12/06 07:52:38;;;;;;;11.05;7.50;;;;;;;6.61;70.56;100154.91;4840678;28;101719;-79
2022/12/06 07:55:04;;;;;;;13.90;7.38;;;;;;;6.60;70.55;100149.69;4851540;28;101720;-79
2022/12/06 07:57:30;;;;;;;11.13;7.20;;;;;;;6.59;70.41;100146.22;4863560;28;97072;-84
2022/12/06 07:59:55;;;;;;;9.57;7.20;;;;;;;6.50;70.46;100126.41;4846803;28;97057;-83
2022/12/06 08:02:24;;;;;;;9.35;7.03;;;;;;;6.58;70.55;100141.91;4847666;28;97848;-82
2022/12/06 08:04:50;;;;;;;17.33;8.25;;;;;;;6.42;70.58;100114.41;4836144;28;101202;-82
2022/12/06 08:07:16;;;;;;;12.38;7.65;;;;;;;6.41;70.37;100112.72;4849933;28;97220;-82
2022/12/06 08:09:41;;;;;;;10.65;7.15;;;;;;;6.59;70.37;100141.03;4858850;28;97918;-81
2022/12/06 08:12:07;;;;;;;10.70;6.93;;;;;;;6.60;69.70;100136.66;4845351;28;101669;-88
2022/12/06 08:14:34;;;;;;;11.05;7.47;;;;;;;6.61;70.06;100141.84;4851253;28;98191;-86
2022/12/06 08:17:00;;;;;;;12.07;7.78;;;;;;;6.46;69.94;100121.31;4843994;28;97509;-84
2022/12/06 08:19:25;;;;;;;12.50;7.65;;;;;;;6.39;70.22;100104.06;4855496;28;96941;-84
2022/12/06 08:21:51;;;;;;;10.70;7.85;;;;;;;6.53;70.36;100122.88;4843310;28;101344;-86
2022/12/06 08:24:16;;;;;;;9.07;6.30;;;;;;;6.37;69.79;100104.09;4840743;28;100768;-86
2022/12/06 08:26:42;;;;;;;10.77;6.20;;;;;;;6.60;69.85;100136.66;4840956;28;97662;-86
2022/12/06 08:29:07;;;;;;;10.20;6.43;;;;;;;6.39;69.46;100109.28;4849441;28;97052;-89
2022/12/06 08:31:33;;;;;;;13.32;6.35;;;;;;;6.29;69.45;100087.75;4846028;28;98267;-88
2022/12/06 08:33:59;;;;;;;9.68;6.05;;;;;;;6.56;69.68;100144.53;4840904;28;100179;-90
2022/12/06 08:36:26;;;;;;;11.25;6.50;;;;;;;6.34;69.76;100112.84;4853549;28;97194;-86
2022/12/06 08:38:52;;;;;;;8.80;5.85;;;;;;;6.42;70.27;100119.63;4838520;28;97084;-86
2022/12/06 08:44:03;;;;;;;7.72;5.05;;;;;;;6.54;69.92;100140.25;4862328;28;101210;-87
2022/12/06 08:46:30;;;;;;;8.45;6.00;;;;;;;6.34;70.10;100099.81;4839428;28;96869;-86
2022/12/06 08:48:55;;;;;;;8.38;5.38;;;;;;;6.29;69.97;100103.41;4839159;28;98251;-87
2022/12/06 08:51:21;;;;;;;7.78;5.32;;;;;;;6.46;69.91;100122.16;4842179;28;101263;-89
2022/12/06 08:53:47;;;;;;;9.15;5.22;;;;;;;6.41;69.90;100113.56;4841594;28;100958;-86
2022/12/06 08:56:12;;;;;;;6.47;5.10;;;;;;;6.60;69.71;100128.81;4846312;28;97340;-87
2022/12/06 08:58:38;;;;;;;7.95;5.50;;;;;;;6.51;69.70;100117.69;4840200;28;97544;-86
2022/12/06 09:01:21;;;;;;;10.50;5.80;;;;;;;6.55;69.84;100123.72;4851650;28;98412;-86
2022/12/06 09:03:47;;;;;;;8.07;5.67;;;;;;;6.54;69.92;100114.16;4869075;28;98348;-87
2022/12/06 09:06:13;;;;;;;9.50;6.07;;;;;;;6.52;70.38;100105.53;4838235;28;97275;-87
2022/12/06 09:08:39;;;;;;;8.45;5.90;;;;;;;6.48;70.40;100098.66;4850165;28;97327;-87
2022/12/06 09:11:05;;;;;;;6.90;5.03;;;;;;;6.52;70.30;100110.75;4853936;28;101424;-87
2022/12/06 09:13:31;;;;;;;9.18;6.03;;;;;;;6.45;70.14;100101.31;4843837;28;101003;-86
2022/12/06 09:15:57;;;;;;;10.43;5.68;;;;;;;6.57;70.39;100120.19;4841186;28;96855;-87
2022/12/06 09:18:22;;;;;;;7.20;5.65;;;;;;;6.59;69.94;100120.16;4856451;28;97072;-87
2022/12/06 09:20:48;;;;;;;8.10;5.57;;;;;;;6.58;69.67;100115.84;4862938;28;98108;-88
2022/12/06 09:23:13;;;;;;;6.85;5.15;;;;;;;6.40;70.01;100077.97;4840291;28;101661;-87
2022/12/06 09:25:42;;;;;;;8.10;5.82;;;;;;;6.33;70.10;100072.00;4859360;28;97298;-87
2022/12/06 09:28:09;;;;;;;7.53;5.28;;;;;;;6.45;70.18;100090.88;4830282;28;96902;-87
2022/12/06 09:30:34;;;;;;;9.43;5.60;;;;;;;6.43;70.04;100097.88;4839055;28;101140;-85
2022/12/06 09:33:00;;;;;;;8.30;4.82;;;;;;;6.37;69.93;100084.97;4844530;28;100959;-82
2022/12/06 09:35:26;;;;;;;7.95;5.25;;;;;;;6.53;69.97;100108.09;4845534;28;97280;-83
2022/12/06 09:37:52;;;;;;;7.05;5.28;;;;;;;6.61;70.01;100115.78;4840880;28;97189;-89
2022/12/06 09:40:30;;;;;;;8.35;5.13;;;;;;;6.64;69.91;100117.47;4863989;28;100995;-91
2022/12/06 09:43:26;;;;;;;7.85;5.20;;;;;;;6.61;69.60;100112.31;4836787;28;100960;-86
2022/12/06 09:46:13;;;;;;;6.47;5.13;;;;;;;6.61;70.26;100105.34;4842162;28;96816;-82
2022/12/06 09:49:02;;;;;;;9.52;5.82;;;;;;;6.58;70.19;100116.69;4849429;28;96891;-84
2022/12/06 09:51:34;;;;;;;7.35;5.18;;;;;;;6.51;70.40;100098.59;4835107;28;100917;-84
2022/12/06 09:54:32;;;;;;;7.80;5.85;;;;;;;6.54;70.27;100096.78;4845958;28;100139;-82
2022/12/06 09:57:16;;;;;;;8.77;5.85;;;;;;;6.56;70.24;100095.00;4849292;28;97121;-81
2022/12/06 09:59:44;;;;;;;13.15;6.07;;;;;;;6.57;70.18;100101.94;4839553;28;96870;-82
2022/12/06 10:02:23;;;;;;;7.78;6.05;;;;;;;6.57;70.12;100096.72;4861677;28;100934;-83
2022/12/06 10:04:57;;;;;;;9.82;5.80;;;;;;;6.57;69.87;100104.56;4854299;28;101433;-83
2022/12/06 10:07:30;;;;;;;7.95;5.95;;;;;;;6.56;69.93;100094.13;4853687;28;96942;-83
2022/12/06 10:10:29;;;;;;;9.98;6.07;;;;;;;6.52;69.72;100075.09;4839832;28;97345;-83
2022/12/06 10:13:17;;;;;;;11.90;7.22;;;;;;;6.57;69.61;100080.19;4850094;28;98831;-81
2022/12/06 10:16:07;;;;;;;14.25;8.55;;;;;;;6.57;69.79;100072.38;4836836;28;101373;-82
2022/12/06 10:18:53;;;;;;;11.75;8.48;;;;;;;6.45;69.86;100051.78;4857144;28;97621;-82
2022/12/06 10:21:51;;;;;;;10.52;6.82;;;;;;;6.52;69.34;100063.81;4807219;28;97094;-83
2022/12/06 10:24:19;;;;;;;8.32;5.97;;;;;;;6.43;69.55;100038.78;4853589;28;101515;-83
2022/12/06 10:26:53;;;;;;;7.43;5.90;;;;;;;6.41;69.92;100042.31;4847708;28;101466;-83
2022/12/06 10:29:43;;;;;;;6.53;5.22;;;;;;;6.52;69.93;100061.19;4836126;28;96868;-83
2022/12/06 10:32:22;;;;;;;8.32;5.90;;;;;;;6.50;69.94;100052.53;4829822;28;97327;-82
2022/12/06 10:34:55;;;;;;;8.63;5.95;;;;;;;6.51;69.72;100049.03;4824340;28;101744;-83
2022/12/06 10:37:23;;;;;;;9.82;6.35;;;;;;;6.51;69.68;100057.72;4846114;28;100851;-82
2022/12/06 10:40:07;;;;;;;8.13;5.88;;;;;;;6.49;69.29;100051.69;4860527;28;97263;-83
2022/12/06 10:42:36;;;;;;;7.07;5.78;;;;;;;6.39;69.76;100033.66;4840470;28;97310;-84
2022/12/06 10:48:14;;;;;;;6.60;5.57;;;;;;;6.52;69.95;100050.78;4865309;28;102382;-82
2022/12/06 10:50:41;;;;;;;8.23;6.47;;;;;;;6.22;70.33;100003.59;4843546;28;96801;-82
2022/12/06 10:53:14;;;;;;;8.90;6.85;;;;;;;6.32;70.05;100015.53;4832511;28;96952;-82
2022/12/06 10:55:44;;;;;;;9.70;6.65;;;;;;;6.48;70.20;100042.13;4835717;28;101625;-81
2022/12/06 10:58:32;;;;;;;8.95;7.30;;;;;;;6.52;70.20;100038.59;4847590;28;101072;-82
2022/12/06 11:01:00;;;;;;;14.05;7.43;;;;;;;6.48;70.52;100039.53;4836738;28;96955;-81
2022/12/06 11:03:34;;;;;;;10.73;7.55;;;;;;;6.49;70.40;100035.19;4841522;28;96887;-80
2022/12/06 11:06:17;;;;;;;9.38;7.25;;;;;;;6.48;70.38;100034.31;4840328;28;101220;-77
2022/12/06 11:08:46;;;;;;;9.95;7.47;;;;;;;6.48;70.82;100021.28;4843521;28;101465;-83
2022/12/06 11:11:17;;;;;;;13.35;8.27;;;;;;;6.45;70.90;100017.88;4873013;28;97923;-82
2022/12/06 11:13:46;;;;;;;20.35;11.00;;;;;;;6.50;70.67;100024.72;4855864;28;97256;-83
2022/12/06 11:16:18;;;;;;;17.77;10.20;;;;;;;6.31;70.58;99989.50;4844062;28;101508;-83
2022/12/06 11:18:45;;;;;;;12.73;8.18;;;;;;;6.26;70.84;99984.41;4852599;28;101095;-83
2022/12/06 11:21:34;;;;;;;10.95;7.75;;;;;;;6.50;70.93;100016.88;4854912;28;97042;-82
2022/12/06 11:24:24;;;;;;;8.38;6.07;;;;;;;6.53;70.39;100010.75;4853133;28;96694;-83
2022/12/06 11:27:14;;;;;;;9.75;5.97;;;;;;;6.51;70.21;100000.34;4887107;28;97956;-83
2022/12/06 11:29:41;;;;;;;7.72;5.28;;;;;;;6.54;70.08;100002.03;4838679;28;101547;-86
2022/12/06 11:32:07;;;;;;;8.85;5.57;;;;;;;6.39;69.77;99977.16;4846454;28;96792;-84
2022/12/06 11:34:48;;;;;;;13.18;7.15;;;;;;;6.55;69.84;100012.44;4834768;28;97788;-83
2022/12/06 11:37:17;;;;;;;13.35;6.95;;;;;;;6.43;69.69;99985.75;4855821;28;101457;-86
2022/12/06 11:39:43;;;;;;;14.45;7.28;;;;;;;6.50;69.68;100003.84;4841671;28;101282;-84
2022/12/06 11:42:10;;;;;;;10.35;6.30;;;;;;;6.54;69.62;100008.13;4862395;28;97506;-84
2022/12/06 11:44:42;;;;;;;8.80;6.20;;;;;;;6.33;69.67;99972.94;4834570;28;96988;-84
2022/12/06 11:47:14;;;;;;;10.30;5.93;;;;;;;6.58;69.58;100001.09;4856049;28;101402;-87
2022/12/06 11:49:41;;;;;;;11.77;6.25;;;;;;;6.58;69.63;99996.72;4831991;28;101423;-83
2022/12/06 11:52:11;;;;;;;10.73;5.95;;;;;;;6.49;69.76;99985.66;4834152;28;97620;-81
2022/12/06 11:54:57;;;;;;;8.68;5.72;;;;;;;6.58;69.42;99981.06;4850514;28;97310;-82
2022/12/06 11:57:27;;;;;;;8.65;5.65;;;;;;;6.58;69.74;99985.44;4868882;28;101795;-84
2022/12/06 12:00:07;;;;;;;11.27;6.97;;;;;;;6.45;69.59;99970.94;4833570;28;101652;-83
2022/12/06 12:02:38;;;;;;;10.85;6.45;;;;;;;6.54;69.66;99982.03;4858576;28;97885;-82